PWSweather.com
Personal Weather Stations
Station Observations
PRATO
PratoIT 59100

PratoIT 59100

Lat: 43.8956799, Lon: 11.0845155

Elevation: 164

Station Type: Davis Vantage Vue

http://www.meteoprato.it

High Low Average
Temperature 55.8°F13.2°F 43.6°F6.4°F 50.4°F10.2°F
Dew Point 42.5°F5.8°F 26.1°F-3.3°F 31.6°F-0.2°F
Winds 25.7 mph -41.4 mph - 2.7 mph 4.3 mph 18.4 mph 29.6 mph
Wind Gusts 51.0 mph82.1 mph 5.0 mph8.0 mph 33.4 mph53.8 mph
Humidity 71% 32% 50%
Pressure 30.13 in1020.30 in 29.84 in1010.50 in -
Precipitation 0.00 in0.00 in - -
Hour Temp Dew Point Humidity Winds Wind Gusts Pressure Precip Precip Rate Daily Precip Total
12:00 AM 53.9°F12.2°C 41.2°F5.1°C 62% 2.8 mph NE4.5 kmh NE 5.0 mph8.0 kmh 29.84 in1010.5 mb 0.00 in0.0 mm 0.00 in0.0 mm 0.00 in0.0 mm
12:05 AM 54.1°F12.3°C 40.9°F4.9°C 61% 2.7 mph NE4.3 kmh NE 12.0 mph19.3 kmh 29.84 in1010.5 mb 0.00 in0.0 mm 0.00 in0.0 mm 0.00 in0.0 mm
12:10 AM 55.4°F13.0°C 40.9°F4.9°C 58% 3.7 mph NE6.0 kmh NE 20.0 mph32.2 kmh 29.84 in1010.5 mb 0.00 in0.0 mm 0.00 in0.0 mm 0.00 in0.0 mm
12:15 AM 55.8°F13.2°C 41.7°F5.4°C 59% 7.9 mph NE12.7 kmh NE 24.0 mph38.6 kmh 29.84 in1010.5 mb 0.00 in0.0 mm 0.00 in0.0 mm 0.00 in0.0 mm
12:20 AM 55.7°F13.2°C 42.5°F5.8°C 61% 13.0 mph NE20.9 kmh NE 28.0 mph45.1 kmh 29.84 in1010.5 mb 0.00 in0.0 mm 0.00 in0.0 mm 0.00 in0.0 mm
12:25 AM 54.9°F12.7°C 42.5°F5.8°C 63% 16.3 mph NE26.2 kmh NE 29.0 mph46.7 kmh 29.84 in1010.5 mb 0.00 in0.0 mm 0.00 in0.0 mm 0.00 in0.0 mm
12:30 AM 54.0°F12.2°C 42.1°F5.6°C 64% 17.9 mph NE28.8 kmh NE 32.0 mph51.5 kmh 29.85 in1010.8 mb 0.00 in0.0 mm 0.00 in0.0 mm 0.00 in0.0 mm
12:35 AM 53.2°F11.8°C 41.7°F5.4°C 65% 18.7 mph NE30.1 kmh NE 34.0 mph54.7 kmh 29.85 in1010.8 mb 0.00 in0.0 mm 0.00 in0.0 mm 0.00 in0.0 mm
12:40 AM 52.5°F11.4°C 41.1°F5.1°C 65% 19.5 mph NE31.4 kmh NE 34.0 mph54.7 kmh 29.85 in1010.8 mb 0.00 in0.0 mm 0.00 in0.0 mm 0.00 in0.0 mm
12:45 AM 52.1°F11.2°C 41.1°F5.1°C 66% 20.2 mph NE32.5 kmh NE 34.0 mph54.7 kmh 29.86 in1011.2 mb 0.00 in0.0 mm 0.00 in0.0 mm 0.00 in0.0 mm
12:50 AM 51.9°F11.1°C 40.5°F4.7°C 65% 21.1 mph NE34.0 kmh NE 36.0 mph57.9 kmh 29.87 in1011.5 mb 0.00 in0.0 mm 0.00 in0.0 mm 0.00 in0.0 mm
12:55 AM 51.6°F10.9°C 40.2°F4.6°C 65% 21.8 mph NE35.1 kmh NE 36.0 mph57.9 kmh 29.87 in1011.5 mb 0.00 in0.0 mm 0.00 in0.0 mm 0.00 in0.0 mm
01:00 AM 51.5°F10.8°C 39.7°F4.3°C 64% 21.9 mph NE35.2 kmh NE 34.0 mph54.7 kmh 29.87 in1011.5 mb 0.00 in0.0 mm 0.00 in0.0 mm 0.00 in0.0 mm
01:05 AM 51.3°F10.7°C 39.1°F3.9°C 63% 21.4 mph NE34.4 kmh NE 34.0 mph54.7 kmh 29.88 in1011.9 mb 0.00 in0.0 mm 0.00 in0.0 mm 0.00 in0.0 mm
01:10 AM 51.0°F10.6°C 38.8°F3.8°C 63% 21.5 mph NE34.6 kmh NE 39.0 mph62.8 kmh 29.88 in1011.9 mb 0.00 in0.0 mm 0.00 in0.0 mm 0.00 in0.0 mm
01:15 AM 50.4°F10.2°C 39.1°F3.9°C 65% 22.7 mph NE36.5 kmh NE 39.0 mph62.8 kmh 29.88 in1011.9 mb 0.00 in0.0 mm 0.00 in0.0 mm 0.00 in0.0 mm
01:20 AM 49.7°F9.8°C 39.2°F4.0°C 67% 23.2 mph NE37.3 kmh NE 38.0 mph61.2 kmh 29.90 in1012.5 mb 0.00 in0.0 mm 0.00 in0.0 mm 0.00 in0.0 mm
01:25 AM 49.1°F9.5°C 39.0°F3.9°C 68% 22.5 mph NE36.2 kmh NE 38.0 mph61.2 kmh 29.90 in1012.5 mb 0.00 in0.0 mm 0.00 in0.0 mm 0.00 in0.0 mm
01:30 AM 48.6°F9.2°C 38.1°F3.4°C 67% 22.0 mph NE35.4 kmh NE 37.0 mph59.5 kmh 29.90 in1012.5 mb 0.00 in0.0 mm 0.00 in0.0 mm 0.00 in0.0 mm
01:35 AM 48.1°F8.9°C 37.7°F3.2°C 67% 22.1 mph NE35.6 kmh NE 42.0 mph67.6 kmh 29.91 in1012.9 mb 0.00 in0.0 mm 0.00 in0.0 mm 0.00 in0.0 mm
01:40 AM 47.4°F8.6°C 37.4°F3.0°C 68% 22.2 mph NE35.7 kmh NE 42.0 mph67.6 kmh 29.92 in1013.2 mb 0.00 in0.0 mm 0.00 in0.0 mm 0.00 in0.0 mm
01:45 AM 46.8°F8.2°C 37.2°F2.9°C 69% 22.1 mph NE35.6 kmh NE 37.0 mph59.5 kmh 29.91 in1012.9 mb 0.00 in0.0 mm 0.00 in0.0 mm 0.00 in0.0 mm
01:50 AM 46.6°F8.1°C 37.0°F2.8°C 69% 22.4 mph NE36.0 kmh NE 36.0 mph57.9 kmh 29.92 in1013.2 mb 0.00 in0.0 mm 0.00 in0.0 mm 0.00 in0.0 mm
01:55 AM 46.4°F8.0°C 36.8°F2.7°C 69% 23.0 mph NE37.0 kmh NE 34.0 mph54.7 kmh 29.92 in1013.2 mb 0.00 in0.0 mm 0.00 in0.0 mm 0.00 in0.0 mm
02:00 AM 46.3°F7.9°C 36.7°F2.6°C 69% 23.1 mph NE37.2 kmh NE 35.0 mph56.3 kmh 29.91 in1012.9 mb 0.00 in0.0 mm 0.00 in0.0 mm 0.00 in0.0 mm
02:05 AM 46.4°F8.0°C 36.0°F2.2°C 67% 22.7 mph NE36.5 kmh NE 35.0 mph56.3 kmh 29.91 in1012.9 mb 0.00 in0.0 mm 0.00 in0.0 mm 0.00 in0.0 mm
02:10 AM 46.4°F8.0°C 36.0°F2.2°C 67% 22.3 mph NE35.9 kmh NE 38.0 mph61.2 kmh 29.92 in1013.2 mb 0.00 in0.0 mm 0.00 in0.0 mm 0.00 in0.0 mm
02:15 AM 46.3°F7.9°C 35.9°F2.2°C 67% 21.7 mph NE34.9 kmh NE 38.0 mph61.2 kmh 29.91 in1012.9 mb 0.00 in0.0 mm 0.00 in0.0 mm 0.00 in0.0 mm
02:20 AM 46.3°F7.9°C 35.6°F2.0°C 66% 21.6 mph NE34.8 kmh NE 38.0 mph61.2 kmh 29.92 in1013.2 mb 0.00 in0.0 mm 0.00 in0.0 mm 0.00 in0.0 mm
02:25 AM 46.2°F7.9°C 35.5°F1.9°C 66% 22.0 mph NE35.4 kmh NE 38.0 mph61.2 kmh 29.92 in1013.2 mb 0.00 in0.0 mm 0.00 in0.0 mm 0.00 in0.0 mm
02:30 AM 45.9°F7.7°C 35.2°F1.8°C 66% 22.2 mph NE35.7 kmh NE 37.0 mph59.5 kmh 29.92 in1013.2 mb 0.00 in0.0 mm 0.00 in0.0 mm 0.00 in0.0 mm
02:35 AM 45.7°F7.6°C 35.4°F1.9°C 67% 23.0 mph NE37.0 kmh NE 38.0 mph61.2 kmh 29.92 in1013.2 mb 0.00 in0.0 mm 0.00 in0.0 mm 0.00 in0.0 mm
02:40 AM 45.2°F7.3°C 35.3°F1.8°C 68% 24.4 mph NE39.3 kmh NE 42.0 mph67.6 kmh 29.93 in1013.5 mb 0.00 in0.0 mm 0.00 in0.0 mm 0.00 in0.0 mm
02:45 AM 44.8°F7.1°C 35.2°F1.8°C 69% 25.4 mph NE40.9 kmh NE 42.0 mph67.6 kmh 29.93 in1013.5 mb 0.00 in0.0 mm 0.00 in0.0 mm 0.00 in0.0 mm
02:50 AM 44.7°F7.1°C 35.1°F1.7°C 69% 25.3 mph NE40.7 kmh NE 44.0 mph70.8 kmh 29.93 in1013.5 mb 0.00 in0.0 mm 0.00 in0.0 mm 0.00 in0.0 mm
02:55 AM 44.8°F7.1°C 34.9°F1.6°C 68% 24.1 mph NE38.8 kmh NE 44.0 mph70.8 kmh 29.93 in1013.5 mb 0.00 in0.0 mm 0.00 in0.0 mm 0.00 in0.0 mm
03:00 AM 44.8°F7.1°C 34.5°F1.4°C 67% 22.3 mph NE35.9 kmh NE 43.0 mph69.2 kmh 29.93 in1013.5 mb 0.00 in0.0 mm 0.00 in0.0 mm 0.00 in0.0 mm
03:05 AM 44.5°F6.9°C 34.6°F1.4°C 68% 22.5 mph NE36.2 kmh NE 43.0 mph69.2 kmh 29.93 in1013.5 mb 0.00 in0.0 mm 0.00 in0.0 mm 0.00 in0.0 mm
03:10 AM 44.6°F7.0°C 34.7°F1.5°C 68% 24.4 mph NE39.3 kmh NE 38.0 mph61.2 kmh 29.93 in1013.5 mb 0.00 in0.0 mm 0.00 in0.0 mm 0.00 in0.0 mm
03:15 AM 44.4°F6.9°C 34.9°F1.6°C 69% 25.5 mph NE41.0 kmh NE 41.0 mph66.0 kmh 29.93 in1013.5 mb 0.00 in0.0 mm 0.00 in0.0 mm 0.00 in0.0 mm
03:20 AM 44.5°F6.9°C 34.6°F1.4°C 68% 25.1 mph NE40.4 kmh NE 41.0 mph66.0 kmh 29.93 in1013.5 mb 0.00 in0.0 mm 0.00 in0.0 mm 0.00 in0.0 mm
03:25 AM 44.3°F6.8°C 34.4°F1.3°C 68% 24.3 mph NE39.1 kmh NE 36.0 mph57.9 kmh 29.93 in1013.5 mb 0.00 in0.0 mm 0.00 in0.0 mm 0.00 in0.0 mm
03:30 AM 44.3°F6.8°C 34.4°F1.3°C 68% 24.4 mph NE39.3 kmh NE 40.0 mph64.4 kmh 29.94 in1013.9 mb 0.00 in0.0 mm 0.00 in0.0 mm 0.00 in0.0 mm
03:35 AM 44.3°F6.8°C 34.4°F1.3°C 68% 25.3 mph NE40.7 kmh NE 44.0 mph70.8 kmh 29.93 in1013.5 mb 0.00 in0.0 mm 0.00 in0.0 mm 0.00 in0.0 mm
03:40 AM 44.1°F6.7°C 34.6°F1.4°C 69% 25.7 mph NE41.4 kmh NE 44.0 mph70.8 kmh 29.93 in1013.5 mb 0.00 in0.0 mm 0.00 in0.0 mm 0.00 in0.0 mm
03:45 AM 44.0°F6.7°C 34.5°F1.4°C 69% 24.1 mph NE38.8 kmh NE 39.0 mph62.8 kmh 29.93 in1013.5 mb 0.00 in0.0 mm 0.00 in0.0 mm 0.00 in0.0 mm
03:50 AM 44.0°F6.7°C 34.1°F1.2°C 68% 22.4 mph NE36.0 kmh NE 39.0 mph62.8 kmh 29.93 in1013.5 mb 0.00 in0.0 mm 0.00 in0.0 mm 0.00 in0.0 mm
03:55 AM 44.1°F6.7°C 33.8°F1.0°C 67% 22.8 mph NE36.7 kmh NE 41.0 mph66.0 kmh 29.94 in1013.9 mb 0.00 in0.0 mm 0.00 in0.0 mm 0.00 in0.0 mm
04:00 AM 44.1°F6.7°C 33.8°F1.0°C 67% 24.1 mph NE38.8 kmh NE 43.0 mph69.2 kmh 29.95 in1014.2 mb 0.00 in0.0 mm 0.00 in0.0 mm 0.00 in0.0 mm
04:05 AM 44.1°F6.7°C 33.8°F1.0°C 67% 24.8 mph NE39.9 kmh NE 43.0 mph69.2 kmh 29.94 in1013.9 mb 0.00 in0.0 mm 0.00 in0.0 mm 0.00 in0.0 mm
04:10 AM 44.5°F6.9°C 33.5°F0.8°C 65% 24.0 mph NE38.6 kmh NE 46.0 mph74.0 kmh 29.95 in1014.2 mb 0.00 in0.0 mm 0.00 in0.0 mm 0.00 in0.0 mm
04:15 AM 44.8°F7.1°C 33.7°F0.9°C 65% 23.8 mph NE38.3 kmh NE 46.0 mph74.0 kmh 29.95 in1014.2 mb 0.00 in0.0 mm 0.00 in0.0 mm 0.00 in0.0 mm
04:20 AM 44.7°F7.1°C 33.6°F0.9°C 65% 24.1 mph NE38.8 kmh NE 43.0 mph69.2 kmh 29.96 in1014.6 mb 0.00 in0.0 mm 0.00 in0.0 mm 0.00 in0.0 mm
04:25 AM 44.7°F7.1°C 34.0°F1.1°C 66% 23.6 mph NE38.0 kmh NE 43.0 mph69.2 kmh 29.96 in1014.6 mb 0.00 in0.0 mm 0.00 in0.0 mm 0.00 in0.0 mm
04:30 AM 44.6°F7.0°C 33.9°F1.1°C 66% 22.6 mph NE36.4 kmh NE 40.0 mph64.4 kmh 29.96 in1014.6 mb 0.00 in0.0 mm 0.00 in0.0 mm 0.00 in0.0 mm
04:35 AM 44.5°F6.9°C 33.8°F1.0°C 66% 22.0 mph NE35.4 kmh NE 40.0 mph64.4 kmh 29.96 in1014.6 mb 0.00 in0.0 mm 0.00 in0.0 mm 0.00 in0.0 mm
04:40 AM 44.4°F6.9°C 34.1°F1.2°C 67% 22.1 mph NE35.6 kmh NE 42.0 mph67.6 kmh 29.96 in1014.6 mb 0.00 in0.0 mm 0.00 in0.0 mm 0.00 in0.0 mm
04:45 AM 43.9°F6.6°C 34.4°F1.3°C 69% 22.9 mph NE36.9 kmh NE 42.0 mph67.6 kmh 29.96 in1014.6 mb 0.00 in0.0 mm 0.00 in0.0 mm 0.00 in0.0 mm
04:50 AM 43.8°F6.6°C 34.3°F1.3°C 69% 24.0 mph NE38.6 kmh NE 42.0 mph67.6 kmh 29.96 in1014.6 mb 0.00 in0.0 mm 0.00 in0.0 mm 0.00 in0.0 mm
04:55 AM 43.6°F6.4°C 34.5°F1.4°C 70% 24.5 mph NE39.4 kmh NE 41.0 mph66.0 kmh 29.95 in1014.2 mb 0.00 in0.0 mm 0.00 in0.0 mm 0.00 in0.0 mm
05:00 AM 43.6°F6.4°C 34.5°F1.4°C 70% 24.0 mph NE38.6 kmh NE 39.0 mph62.8 kmh 29.96 in1014.6 mb 0.00 in0.0 mm 0.00 in0.0 mm 0.00 in0.0 mm
05:05 AM 43.8°F6.6°C 34.6°F1.4°C 70% 22.9 mph NE36.9 kmh NE 38.0 mph61.2 kmh 29.96 in1014.6 mb 0.00 in0.0 mm 0.00 in0.0 mm 0.00 in0.0 mm
05:10 AM 43.9°F6.6°C 34.7°F1.5°C 70% 22.8 mph NE36.7 kmh NE 39.0 mph62.8 kmh 29.96 in1014.6 mb 0.00 in0.0 mm 0.00 in0.0 mm 0.00 in0.0 mm
05:15 AM 43.7°F6.5°C 34.9°F1.6°C 71% 23.9 mph NE38.5 kmh NE 39.0 mph62.8 kmh 29.95 in1014.2 mb 0.00 in0.0 mm 0.00 in0.0 mm 0.00 in0.0 mm
05:20 AM 43.7°F6.5°C 34.6°F1.4°C 70% 24.0 mph NE38.6 kmh NE 40.0 mph64.4 kmh 29.95 in1014.2 mb 0.00 in0.0 mm 0.00 in0.0 mm 0.00 in0.0 mm
05:25 AM 43.8°F6.6°C 34.3°F1.3°C 69% 22.8 mph NE36.7 kmh NE 43.0 mph69.2 kmh 29.96 in1014.6 mb 0.00 in0.0 mm 0.00 in0.0 mm 0.00 in0.0 mm
05:30 AM 43.8°F6.6°C 34.6°F1.4°C 70% 22.6 mph NE36.4 kmh NE 43.0 mph69.2 kmh 29.96 in1014.6 mb 0.00 in0.0 mm 0.00 in0.0 mm 0.00 in0.0 mm
05:35 AM 43.7°F6.5°C 34.6°F1.4°C 70% 23.5 mph NE37.8 kmh NE 38.0 mph61.2 kmh 29.96 in1014.6 mb 0.00 in0.0 mm 0.00 in0.0 mm 0.00 in0.0 mm
05:40 AM 43.7°F6.5°C 34.6°F1.4°C 70% 23.3 mph NE37.5 kmh NE 34.0 mph54.7 kmh 29.96 in1014.6 mb 0.00 in0.0 mm 0.00 in0.0 mm 0.00 in0.0 mm
05:45 AM 43.9°F6.6°C 34.4°F1.3°C 69% 22.5 mph NE36.2 kmh NE 34.0 mph54.7 kmh 29.96 in1014.6 mb 0.00 in0.0 mm 0.00 in0.0 mm 0.00 in0.0 mm
05:50 AM 44.1°F6.7°C 34.2°F1.2°C 68% 22.1 mph NE35.6 kmh NE 34.0 mph54.7 kmh 29.96 in1014.6 mb 0.00 in0.0 mm 0.00 in0.0 mm 0.00 in0.0 mm
05:55 AM 44.3°F6.8°C 34.4°F1.3°C 68% 22.4 mph NE36.0 kmh NE 39.0 mph62.8 kmh 29.96 in1014.6 mb 0.00 in0.0 mm 0.00 in0.0 mm 0.00 in0.0 mm
06:00 AM 44.4°F6.9°C 34.1°F1.2°C 67% 23.1 mph NE37.2 kmh NE 39.0 mph62.8 kmh 29.97 in1014.9 mb 0.00 in0.0 mm 0.00 in0.0 mm 0.00 in0.0 mm
06:05 AM 44.5°F6.9°C 33.8°F1.0°C 66% 23.3 mph NE37.5 kmh NE 36.0 mph57.9 kmh 29.97 in1014.9 mb 0.00 in0.0 mm 0.00 in0.0 mm 0.00 in0.0 mm
06:10 AM 44.5°F6.9°C 34.2°F1.2°C 67% 23.3 mph NE37.5 kmh NE 37.0 mph59.5 kmh 29.97 in1014.9 mb 0.00 in0.0 mm 0.00 in0.0 mm 0.00 in0.0 mm
06:15 AM 44.5°F6.9°C 34.2°F1.2°C 67% 22.8 mph NE36.7 kmh NE 37.0 mph59.5 kmh 29.97 in1014.9 mb 0.00 in0.0 mm 0.00 in0.0 mm 0.00 in0.0 mm
06:20 AM 44.6°F7.0°C 33.6°F0.9°C 65% 22.1 mph NE35.6 kmh NE 36.0 mph57.9 kmh 29.97 in1014.9 mb 0.00 in0.0 mm 0.00 in0.0 mm 0.00 in0.0 mm
06:25 AM 44.8°F7.1°C 33.7°F0.9°C 65% 22.2 mph NE35.7 kmh NE 37.0 mph59.5 kmh 29.98 in1015.2 mb 0.00 in0.0 mm 0.00 in0.0 mm 0.00 in0.0 mm
06:30 AM 44.8°F7.1°C 33.7°F0.9°C 65% 22.4 mph NE36.0 kmh NE 37.0 mph59.5 kmh 29.98 in1015.2 mb 0.00 in0.0 mm 0.00 in0.0 mm 0.00 in0.0 mm
06:35 AM 44.9°F7.2°C 33.5°F0.8°C 64% 21.6 mph NE34.8 kmh NE 37.0 mph59.5 kmh 29.98 in1015.2 mb 0.00 in0.0 mm 0.00 in0.0 mm 0.00 in0.0 mm
06:40 AM 45.0°F7.2°C 33.2°F0.7°C 63% 21.7 mph NE34.9 kmh NE 35.0 mph56.3 kmh 29.98 in1015.2 mb 0.00 in0.0 mm 0.00 in0.0 mm 0.00 in0.0 mm
06:45 AM 45.0°F7.2°C 33.5°F0.8°C 64% 21.9 mph NE35.2 kmh NE 33.0 mph53.1 kmh 29.98 in1015.2 mb 0.00 in0.0 mm 0.00 in0.0 mm 0.00 in0.0 mm
06:50 AM 45.1°F7.3°C 33.2°F0.7°C 63% 20.8 mph NE33.5 kmh NE 38.0 mph61.2 kmh 29.98 in1015.2 mb 0.00 in0.0 mm 0.00 in0.0 mm 0.00 in0.0 mm
06:55 AM 45.3°F7.4°C 32.6°F0.3°C 61% 20.1 mph NE32.3 kmh NE 38.0 mph61.2 kmh 29.97 in1014.9 mb 0.00 in0.0 mm 0.00 in0.0 mm 0.00 in0.0 mm
07:00 AM 45.6°F7.6°C 32.5°F0.3°C 60% 20.0 mph NE32.2 kmh NE 31.0 mph49.9 kmh 29.97 in1014.9 mb 0.00 in0.0 mm 0.00 in0.0 mm 0.00 in0.0 mm
07:05 AM 45.9°F7.7°C 31.5°F-0.3°C 57% 19.4 mph NE31.2 kmh NE 35.0 mph56.3 kmh 29.97 in1014.9 mb 0.00 in0.0 mm 0.00 in0.0 mm 0.00 in0.0 mm
07:10 AM 46.2°F7.9°C 31.4°F-0.3°C 56% 19.2 mph NE30.9 kmh NE 35.0 mph56.3 kmh 29.97 in1014.9 mb 0.00 in0.0 mm 0.00 in0.0 mm 0.00 in0.0 mm
07:15 AM 46.5°F8.1°C 30.7°F-0.7°C 54% 19.1 mph NE30.7 kmh NE 31.0 mph49.9 kmh 29.97 in1014.9 mb 0.00 in0.0 mm 0.00 in0.0 mm 0.00 in0.0 mm
07:20 AM 46.8°F8.2°C 30.6°F-0.8°C 53% 18.9 mph NE30.4 kmh NE 35.0 mph56.3 kmh 29.97 in1014.9 mb 0.00 in0.0 mm 0.00 in0.0 mm 0.00 in0.0 mm
07:25 AM 47.2°F8.4°C 30.5°F-0.8°C 52% 19.2 mph NE30.9 kmh NE 36.0 mph57.9 kmh 29.97 in1014.9 mb 0.00 in0.0 mm 0.00 in0.0 mm 0.00 in0.0 mm
07:30 AM 47.5°F8.6°C 30.3°F-0.9°C 51% 19.8 mph NE31.9 kmh NE 38.0 mph61.2 kmh 29.97 in1014.9 mb 0.00 in0.0 mm 0.00 in0.0 mm 0.00 in0.0 mm
07:35 AM 47.6°F8.7°C 30.3°F-0.9°C 51% 20.3 mph NE32.7 kmh NE 38.0 mph61.2 kmh 29.97 in1014.9 mb 0.00 in0.0 mm 0.00 in0.0 mm 0.00 in0.0 mm
07:40 AM 47.8°F8.8°C 30.0°F-1.1°C 50% 20.5 mph NE33.0 kmh NE 30.0 mph48.3 kmh 29.97 in1014.9 mb 0.00 in0.0 mm 0.00 in0.0 mm 0.00 in0.0 mm
07:45 AM 47.9°F8.8°C 30.6°F-0.8°C 51% 20.6 mph NE33.2 kmh NE 38.0 mph61.2 kmh 29.97 in1014.9 mb 0.00 in0.0 mm 0.00 in0.0 mm 0.00 in0.0 mm
07:50 AM 48.0°F8.9°C 30.2°F-1.0°C 50% 20.7 mph NE33.3 kmh NE 38.0 mph61.2 kmh 29.97 in1014.9 mb 0.00 in0.0 mm 0.00 in0.0 mm 0.00 in0.0 mm
07:55 AM 48.1°F8.9°C 30.8°F-0.7°C 51% 21.2 mph NE34.1 kmh NE 36.0 mph57.9 kmh 29.97 in1014.9 mb 0.00 in0.0 mm 0.00 in0.0 mm 0.00 in0.0 mm
08:00 AM 48.1°F8.9°C 30.8°F-0.7°C 51% 21.5 mph NE34.6 kmh NE 34.0 mph54.7 kmh 29.97 in1014.9 mb 0.00 in0.0 mm 0.00 in0.0 mm 0.00 in0.0 mm
08:05 AM 48.2°F9.0°C 30.9°F-0.6°C 51% 21.8 mph NE35.1 kmh NE 37.0 mph59.5 kmh 29.97 in1014.9 mb 0.00 in0.0 mm 0.00 in0.0 mm 0.00 in0.0 mm
08:10 AM 48.3°F9.1°C 30.5°F-0.8°C 50% 22.0 mph NE35.4 kmh NE 39.0 mph62.8 kmh 29.97 in1014.9 mb 0.00 in0.0 mm 0.00 in0.0 mm 0.00 in0.0 mm
08:15 AM 48.5°F9.2°C 30.2°F-1.0°C 49% 22.7 mph NE36.5 kmh NE 39.0 mph62.8 kmh 29.97 in1014.9 mb 0.00 in0.0 mm 0.00 in0.0 mm 0.00 in0.0 mm
08:20 AM 48.5°F9.2°C 30.7°F-0.7°C 50% 23.4 mph NE37.7 kmh NE 38.0 mph61.2 kmh 29.97 in1014.9 mb 0.00 in0.0 mm 0.00 in0.0 mm 0.00 in0.0 mm
08:25 AM 48.5°F9.2°C 31.2°F-0.4°C 51% 23.0 mph NE37.0 kmh NE 38.0 mph61.2 kmh 29.97 in1014.9 mb 0.00 in0.0 mm 0.00 in0.0 mm 0.00 in0.0 mm
08:30 AM 48.6°F9.2°C 31.3°F-0.4°C 51% 22.3 mph NE35.9 kmh NE 37.0 mph59.5 kmh 29.98 in1015.2 mb 0.00 in0.0 mm 0.00 in0.0 mm 0.00 in0.0 mm
08:35 AM 48.8°F9.3°C 31.0°F-0.6°C 50% 22.2 mph NE35.7 kmh NE 42.0 mph67.6 kmh 29.98 in1015.2 mb 0.00 in0.0 mm 0.00 in0.0 mm 0.00 in0.0 mm
08:40 AM 48.8°F9.3°C 31.0°F-0.6°C 50% 23.9 mph NE38.5 kmh NE 42.0 mph67.6 kmh 29.98 in1015.2 mb 0.00 in0.0 mm 0.00 in0.0 mm 0.00 in0.0 mm
08:45 AM 48.8°F9.3°C 31.5°F-0.3°C 51% 25.5 mph NE41.0 kmh NE 41.0 mph66.0 kmh 29.98 in1015.2 mb 0.00 in0.0 mm 0.00 in0.0 mm 0.00 in0.0 mm
08:50 AM 48.5°F9.2°C 32.1°F0.1°C 53% 24.9 mph NE40.1 kmh NE 41.0 mph66.0 kmh 29.98 in1015.2 mb 0.00 in0.0 mm 0.00 in0.0 mm 0.00 in0.0 mm
08:55 AM 48.5°F9.2°C 31.7°F-0.2°C 52% 23.8 mph NE38.3 kmh NE 39.0 mph62.8 kmh 29.98 in1015.2 mb 0.00 in0.0 mm 0.00 in0.0 mm 0.00 in0.0 mm
09:00 AM 48.5°F9.2°C 32.1°F0.1°C 53% 23.9 mph NE38.5 kmh NE 39.0 mph62.8 kmh 29.98 in1015.2 mb 0.00 in0.0 mm 0.00 in0.0 mm 0.00 in0.0 mm
09:05 AM 48.5°F9.2°C 32.1°F0.1°C 53% 23.7 mph NE38.1 kmh NE 37.0 mph59.5 kmh 29.99 in1015.6 mb 0.00 in0.0 mm 0.00 in0.0 mm 0.00 in0.0 mm
09:10 AM 48.5°F9.2°C 32.6°F0.3°C 54% 22.6 mph NE36.4 kmh NE 38.0 mph61.2 kmh 29.98 in1015.2 mb 0.00 in0.0 mm 0.00 in0.0 mm 0.00 in0.0 mm
09:15 AM 48.4°F9.1°C 33.0°F0.6°C 55% 22.1 mph NE35.6 kmh NE 39.0 mph62.8 kmh 29.98 in1015.2 mb 0.00 in0.0 mm 0.00 in0.0 mm 0.00 in0.0 mm
09:20 AM 48.4°F9.1°C 33.4°F0.8°C 56% 21.8 mph NE35.1 kmh NE 39.0 mph62.8 kmh 29.99 in1015.6 mb 0.00 in0.0 mm 0.00 in0.0 mm 0.00 in0.0 mm
09:25 AM 48.4°F9.1°C 33.4°F0.8°C 56% 21.5 mph NE34.6 kmh NE 39.0 mph62.8 kmh 29.99 in1015.6 mb 0.00 in0.0 mm 0.00 in0.0 mm 0.00 in0.0 mm
09:30 AM 48.6°F9.2°C 32.2°F0.1°C 53% 21.4 mph NE34.4 kmh NE 37.0 mph59.5 kmh 29.98 in1015.2 mb 0.00 in0.0 mm 0.00 in0.0 mm 0.00 in0.0 mm
09:35 AM 48.9°F9.4°C 32.0°F0.0°C 52% 21.6 mph NE34.8 kmh NE 42.0 mph67.6 kmh 29.99 in1015.6 mb 0.00 in0.0 mm 0.00 in0.0 mm 0.00 in0.0 mm
09:40 AM 49.1°F9.5°C 32.2°F0.1°C 52% 22.9 mph NE36.9 kmh NE 42.0 mph67.6 kmh 29.99 in1015.6 mb 0.00 in0.0 mm 0.00 in0.0 mm 0.00 in0.0 mm
09:45 AM 49.3°F9.6°C 32.4°F0.2°C 52% 23.9 mph NE38.5 kmh NE 40.0 mph64.4 kmh 29.98 in1015.2 mb 0.00 in0.0 mm 0.00 in0.0 mm 0.00 in0.0 mm
09:50 AM 49.5°F9.7°C 32.1°F0.1°C 51% 22.6 mph NE36.4 kmh NE 39.0 mph62.8 kmh 29.99 in1015.6 mb 0.00 in0.0 mm 0.00 in0.0 mm 0.00 in0.0 mm
09:55 AM 49.7°F9.8°C 32.3°F0.2°C 51% 20.2 mph NE32.5 kmh NE 33.0 mph53.1 kmh 29.99 in1015.6 mb 0.00 in0.0 mm 0.00 in0.0 mm 0.00 in0.0 mm
10:00 AM 49.8°F9.9°C 32.4°F0.2°C 51% 18.7 mph NE30.1 kmh NE 33.0 mph53.1 kmh 29.99 in1015.6 mb 0.00 in0.0 mm 0.00 in0.0 mm 0.00 in0.0 mm
10:05 AM 49.9°F9.9°C 32.0°F0.0°C 50% 18.9 mph NE30.4 kmh NE 32.0 mph51.5 kmh 29.99 in1015.6 mb 0.00 in0.0 mm 0.00 in0.0 mm 0.00 in0.0 mm
10:10 AM 50.1°F10.1°C 31.7°F-0.2°C 49% 19.9 mph NE32.0 kmh NE 37.0 mph59.5 kmh 29.99 in1015.6 mb 0.00 in0.0 mm 0.00 in0.0 mm 0.00 in0.0 mm
10:15 AM 50.3°F10.2°C 30.8°F-0.7°C 47% 21.2 mph NE34.1 kmh NE 38.0 mph61.2 kmh 29.99 in1015.6 mb 0.00 in0.0 mm 0.00 in0.0 mm 0.00 in0.0 mm
10:20 AM 50.4°F10.2°C 30.9°F-0.6°C 47% 22.8 mph NE36.7 kmh NE 38.0 mph61.2 kmh 30.00 in1015.9 mb 0.00 in0.0 mm 0.00 in0.0 mm 0.00 in0.0 mm
10:25 AM 50.4°F10.2°C 31.9°F-0.1°C 49% 23.6 mph NE38.0 kmh NE 39.0 mph62.8 kmh 30.00 in1015.9 mb 0.00 in0.0 mm 0.00 in0.0 mm 0.00 in0.0 mm
10:30 AM 50.5°F10.3°C 32.0°F0.0°C 49% 22.8 mph NE36.7 kmh NE 39.0 mph62.8 kmh 30.00 in1015.9 mb 0.00 in0.0 mm 0.00 in0.0 mm 0.00 in0.0 mm
10:35 AM 50.6°F10.3°C 32.6°F0.3°C 50% 21.6 mph NE34.8 kmh NE 35.0 mph56.3 kmh 30.00 in1015.9 mb 0.00 in0.0 mm 0.00 in0.0 mm 0.00 in0.0 mm
10:40 AM 50.6°F10.3°C 32.6°F0.3°C 50% 21.4 mph NE34.4 kmh NE 42.0 mph67.6 kmh 30.00 in1015.9 mb 0.00 in0.0 mm 0.00 in0.0 mm 0.00 in0.0 mm
10:45 AM 50.5°F10.3°C 32.5°F0.3°C 50% 22.6 mph NE36.4 kmh NE 51.0 mph82.1 kmh 30.00 in1015.9 mb 0.00 in0.0 mm 0.00 in0.0 mm 0.00 in0.0 mm
10:50 AM 50.6°F10.3°C 32.6°F0.3°C 50% 24.1 mph NE38.8 kmh NE 51.0 mph82.1 kmh 30.01 in1016.3 mb 0.00 in0.0 mm 0.00 in0.0 mm 0.00 in0.0 mm
10:55 AM 50.6°F10.3°C 32.6°F0.3°C 50% 24.7 mph NE39.8 kmh NE 41.0 mph66.0 kmh 30.00 in1015.9 mb 0.00 in0.0 mm 0.00 in0.0 mm 0.00 in0.0 mm
11:00 AM 50.9°F10.5°C 32.9°F0.5°C 50% 23.9 mph NE38.5 kmh NE 41.0 mph66.0 kmh 30.00 in1015.9 mb 0.00 in0.0 mm 0.00 in0.0 mm 0.00 in0.0 mm
11:05 AM 51.0°F10.6°C 32.5°F0.3°C 49% 22.1 mph NE35.6 kmh NE 36.0 mph57.9 kmh 30.00 in1015.9 mb 0.00 in0.0 mm 0.00 in0.0 mm 0.00 in0.0 mm
11:10 AM 51.2°F10.7°C 32.7°F0.4°C 49% 20.5 mph NE33.0 kmh NE 31.0 mph49.9 kmh 30.00 in1015.9 mb 0.00 in0.0 mm 0.00 in0.0 mm 0.00 in0.0 mm
11:15 AM 51.2°F10.7°C 32.7°F0.4°C 49% 20.6 mph NE33.2 kmh NE 39.0 mph62.8 kmh 30.00 in1015.9 mb 0.00 in0.0 mm 0.00 in0.0 mm 0.00 in0.0 mm
11:20 AM 51.5°F10.8°C 32.4°F0.2°C 48% 22.5 mph NE36.2 kmh NE 46.0 mph74.0 kmh 29.99 in1015.6 mb 0.00 in0.0 mm 0.00 in0.0 mm 0.00 in0.0 mm
11:25 AM 51.7°F10.9°C 32.1°F0.1°C 47% 24.2 mph NE38.9 kmh NE 46.0 mph74.0 kmh 30.00 in1015.9 mb 0.00 in0.0 mm 0.00 in0.0 mm 0.00 in0.0 mm
11:30 AM 51.6°F10.9°C 32.0°F0.0°C 47% 24.4 mph NE39.3 kmh NE 40.0 mph64.4 kmh 30.00 in1015.9 mb 0.00 in0.0 mm 0.00 in0.0 mm 0.00 in0.0 mm
11:35 AM 51.6°F10.9°C 32.0°F0.0°C 47% 24.5 mph NE39.4 kmh NE 42.0 mph67.6 kmh 30.00 in1015.9 mb 0.00 in0.0 mm 0.00 in0.0 mm 0.00 in0.0 mm
11:40 AM 51.9°F11.1°C 31.7°F-0.2°C 46% 24.6 mph NE39.6 kmh NE 42.0 mph67.6 kmh 30.00 in1015.9 mb 0.00 in0.0 mm 0.00 in0.0 mm 0.00 in0.0 mm
11:45 AM 51.8°F11.0°C 32.2°F0.1°C 47% 24.1 mph NE38.8 kmh NE 43.0 mph69.2 kmh 30.00 in1015.9 mb 0.00 in0.0 mm 0.00 in0.0 mm 0.00 in0.0 mm
11:50 AM 51.7°F10.9°C 31.6°F-0.2°C 46% 23.8 mph NE38.3 kmh NE 43.0 mph69.2 kmh 30.00 in1015.9 mb 0.00 in0.0 mm 0.00 in0.0 mm 0.00 in0.0 mm
11:55 AM 52.0°F11.1°C 31.8°F-0.1°C 46% 24.3 mph NE39.1 kmh NE 40.0 mph64.4 kmh 30.00 in1015.9 mb 0.00 in0.0 mm 0.00 in0.0 mm 0.00 in0.0 mm
12:00 PM 52.0°F11.1°C 31.8°F-0.1°C 46% 24.4 mph NE39.3 kmh NE 39.0 mph62.8 kmh 29.99 in1015.6 mb 0.00 in0.0 mm 0.00 in0.0 mm 0.00 in0.0 mm
12:05 PM 52.0°F11.1°C 31.3°F-0.4°C 45% 24.1 mph NE38.8 kmh NE 40.0 mph64.4 kmh 29.99 in1015.6 mb 0.00 in0.0 mm 0.00 in0.0 mm 0.00 in0.0 mm
12:10 PM 52.7°F11.5°C 31.4°F-0.3°C 44% 24.6 mph NE39.6 kmh NE 40.0 mph64.4 kmh 29.99 in1015.6 mb 0.00 in0.0 mm 0.00 in0.0 mm 0.00 in0.0 mm
12:15 PM 52.6°F11.4°C 32.4°F0.2°C 46% 24.9 mph NE40.1 kmh NE 42.0 mph67.6 kmh 29.99 in1015.6 mb 0.00 in0.0 mm 0.00 in0.0 mm 0.00 in0.0 mm
12:20 PM 52.8°F11.6°C 33.1°F0.6°C 47% 25.1 mph NE40.4 kmh NE 42.0 mph67.6 kmh 29.99 in1015.6 mb 0.00 in0.0 mm 0.00 in0.0 mm 0.00 in0.0 mm
12:25 PM 53.0°F11.7°C 33.3°F0.7°C 47% 25.5 mph NE41.0 kmh NE 42.0 mph67.6 kmh 30.00 in1015.9 mb 0.00 in0.0 mm 0.00 in0.0 mm 0.00 in0.0 mm
12:30 PM 52.8°F11.6°C 33.6°F0.9°C 48% 24.9 mph NE40.1 kmh NE 43.0 mph69.2 kmh 29.99 in1015.6 mb 0.00 in0.0 mm 0.00 in0.0 mm 0.00 in0.0 mm
12:35 PM 52.8°F11.6°C 33.6°F0.9°C 48% 24.9 mph NE40.1 kmh NE 43.0 mph69.2 kmh 30.00 in1015.9 mb 0.00 in0.0 mm 0.00 in0.0 mm 0.00 in0.0 mm
12:40 PM 53.1°F11.7°C 33.4°F0.8°C 47% 24.9 mph NE40.1 kmh NE 37.0 mph59.5 kmh 30.00 in1015.9 mb 0.00 in0.0 mm 0.00 in0.0 mm 0.00 in0.0 mm
12:45 PM 53.3°F11.8°C 33.0°F0.6°C 46% 23.1 mph NE37.2 kmh NE 42.0 mph67.6 kmh 29.99 in1015.6 mb 0.00 in0.0 mm 0.00 in0.0 mm 0.00 in0.0 mm
12:50 PM 53.3°F11.8°C 33.6°F0.9°C 47% 21.6 mph NE34.8 kmh NE 42.0 mph67.6 kmh 30.00 in1015.9 mb 0.00 in0.0 mm 0.00 in0.0 mm 0.00 in0.0 mm
12:55 PM 53.5°F11.9°C 33.2°F0.7°C 46% 21.7 mph NE34.9 kmh NE 37.0 mph59.5 kmh 29.99 in1015.6 mb 0.00 in0.0 mm 0.00 in0.0 mm 0.00 in0.0 mm
01:00 PM 53.4°F11.9°C 32.6°F0.3°C 45% 22.3 mph NE35.9 kmh NE 40.0 mph64.4 kmh 29.99 in1015.6 mb 0.00 in0.0 mm 0.00 in0.0 mm 0.00 in0.0 mm
01:05 PM 53.4°F11.9°C 32.6°F0.3°C 45% 23.2 mph NE37.3 kmh NE 40.0 mph64.4 kmh 29.99 in1015.6 mb 0.00 in0.0 mm 0.00 in0.0 mm 0.00 in0.0 mm
01:10 PM 53.6°F12.0°C 32.2°F0.1°C 44% 23.9 mph NE38.5 kmh NE 39.0 mph62.8 kmh 30.00 in1015.9 mb 0.00 in0.0 mm 0.00 in0.0 mm 0.00 in0.0 mm
01:15 PM 53.5°F11.9°C 31.5°F-0.3°C 43% 24.1 mph NE38.8 kmh NE 42.0 mph67.6 kmh 29.99 in1015.6 mb 0.00 in0.0 mm 0.00 in0.0 mm 0.00 in0.0 mm
01:20 PM 53.5°F11.9°C 32.1°F0.1°C 44% 24.9 mph NE40.1 kmh NE 42.0 mph67.6 kmh 29.99 in1015.6 mb 0.00 in0.0 mm 0.00 in0.0 mm 0.00 in0.0 mm
01:25 PM 53.5°F11.9°C 31.5°F-0.3°C 43% 24.9 mph NE40.1 kmh NE 39.0 mph62.8 kmh 30.00 in1015.9 mb 0.00 in0.0 mm 0.00 in0.0 mm 0.00 in0.0 mm
01:30 PM 53.9°F12.2°C 30.7°F-0.7°C 41% 22.7 mph NE36.5 kmh NE 39.0 mph62.8 kmh 30.00 in1015.9 mb 0.00 in0.0 mm 0.00 in0.0 mm 0.00 in0.0 mm
01:35 PM 54.1°F12.3°C 30.3°F-0.9°C 40% 20.6 mph NE33.2 kmh NE 37.0 mph59.5 kmh 29.99 in1015.6 mb 0.00 in0.0 mm 0.00 in0.0 mm 0.00 in0.0 mm
01:40 PM 54.1°F12.3°C 28.4°F-2.0°C 37% 20.9 mph NE33.6 kmh NE 38.0 mph61.2 kmh 29.99 in1015.6 mb 0.00 in0.0 mm 0.00 in0.0 mm 0.00 in0.0 mm
01:45 PM 54.2°F12.3°C 28.5°F-1.9°C 37% 22.6 mph NE36.4 kmh NE 39.0 mph62.8 kmh 29.99 in1015.6 mb 0.00 in0.0 mm 0.00 in0.0 mm 0.00 in0.0 mm
01:50 PM 54.3°F12.4°C 28.6°F-1.9°C 37% 23.8 mph NE38.3 kmh NE 39.0 mph62.8 kmh 30.00 in1015.9 mb 0.00 in0.0 mm 0.00 in0.0 mm 0.00 in0.0 mm
01:55 PM 54.2°F12.3°C 27.1°F-2.7°C 35% 24.0 mph NE38.6 kmh NE 45.0 mph72.4 kmh 29.99 in1015.6 mb 0.00 in0.0 mm 0.00 in0.0 mm 0.00 in0.0 mm
02:00 PM 54.5°F12.5°C 27.4°F-2.6°C 35% 24.4 mph NE39.3 kmh NE 45.0 mph72.4 kmh 30.00 in1015.9 mb 0.00 in0.0 mm 0.00 in0.0 mm 0.00 in0.0 mm
02:05 PM 54.5°F12.5°C 28.1°F-2.2°C 36% 25.0 mph NE40.2 kmh NE 44.0 mph70.8 kmh 29.99 in1015.6 mb 0.00 in0.0 mm 0.00 in0.0 mm 0.00 in0.0 mm
02:10 PM 54.6°F12.6°C 28.2°F-2.1°C 36% 24.6 mph NE39.6 kmh NE 45.0 mph72.4 kmh 30.00 in1015.9 mb 0.00 in0.0 mm 0.00 in0.0 mm 0.00 in0.0 mm
02:15 PM 54.7°F12.6°C 28.2°F-2.1°C 36% 23.5 mph NE37.8 kmh NE 45.0 mph72.4 kmh 30.00 in1015.9 mb 0.00 in0.0 mm 0.00 in0.0 mm 0.00 in0.0 mm
02:20 PM 54.9°F12.7°C 27.7°F-2.4°C 35% 22.1 mph NE35.6 kmh NE 36.0 mph57.9 kmh 30.00 in1015.9 mb 0.00 in0.0 mm 0.00 in0.0 mm 0.00 in0.0 mm
02:25 PM 55.1°F12.8°C 27.9°F-2.3°C 35% 20.8 mph NE33.5 kmh NE 35.0 mph56.3 kmh 30.00 in1015.9 mb 0.00 in0.0 mm 0.00 in0.0 mm 0.00 in0.0 mm
02:30 PM 55.1°F12.8°C 28.6°F-1.9°C 36% 20.5 mph NE33.0 kmh NE 39.0 mph62.8 kmh 30.00 in1015.9 mb 0.00 in0.0 mm 0.00 in0.0 mm 0.00 in0.0 mm
02:35 PM 54.9°F12.7°C 27.0°F-2.8°C 34% 21.4 mph NE34.4 kmh NE 41.0 mph66.0 kmh 30.00 in1015.9 mb 0.00 in0.0 mm 0.00 in0.0 mm 0.00 in0.0 mm
02:40 PM 54.8°F12.7°C 27.6°F-2.4°C 35% 23.0 mph NE37.0 kmh NE 41.0 mph66.0 kmh 30.00 in1015.9 mb 0.00 in0.0 mm 0.00 in0.0 mm 0.00 in0.0 mm
02:45 PM 55.2°F12.9°C 28.7°F-1.8°C 36% 23.2 mph NE37.3 kmh NE 40.0 mph64.4 kmh 30.00 in1015.9 mb 0.00 in0.0 mm 0.00 in0.0 mm 0.00 in0.0 mm
02:50 PM 55.5°F13.1°C 28.3°F-2.1°C 35% 21.2 mph NE34.1 kmh NE 34.0 mph54.7 kmh 29.99 in1015.6 mb 0.00 in0.0 mm 0.00 in0.0 mm 0.00 in0.0 mm
02:55 PM 55.4°F13.0°C 28.9°F-1.7°C 36% 19.5 mph NE31.4 kmh NE 36.0 mph57.9 kmh 30.00 in1015.9 mb 0.00 in0.0 mm 0.00 in0.0 mm 0.00 in0.0 mm
03:00 PM 55.5°F13.1°C 29.0°F-1.7°C 36% 19.8 mph NE31.9 kmh NE 36.0 mph57.9 kmh 30.00 in1015.9 mb 0.00 in0.0 mm 0.00 in0.0 mm 0.00 in0.0 mm
03:05 PM 55.7°F13.2°C 28.4°F-2.0°C 35% 19.0 mph NE30.6 kmh NE 33.0 mph53.1 kmh 29.99 in1015.6 mb 0.00 in0.0 mm 0.00 in0.0 mm 0.00 in0.0 mm
03:10 PM 55.8°F13.2°C 28.5°F-1.9°C 35% 16.9 mph NE27.2 kmh NE 33.0 mph53.1 kmh 30.00 in1015.9 mb 0.00 in0.0 mm 0.00 in0.0 mm 0.00 in0.0 mm
03:15 PM 55.7°F13.2°C 28.4°F-2.0°C 35% 16.2 mph NE26.1 kmh NE 33.0 mph53.1 kmh 30.00 in1015.9 mb 0.00 in0.0 mm 0.00 in0.0 mm 0.00 in0.0 mm
03:20 PM 55.4°F13.0°C 28.9°F-1.7°C 36% 17.2 mph NE27.7 kmh NE 33.0 mph53.1 kmh 30.00 in1015.9 mb 0.00 in0.0 mm 0.00 in0.0 mm 0.00 in0.0 mm
03:25 PM 55.5°F13.1°C 29.0°F-1.7°C 36% 18.8 mph NE30.3 kmh NE 32.0 mph51.5 kmh 30.01 in1016.3 mb 0.00 in0.0 mm 0.00 in0.0 mm 0.00 in0.0 mm
03:30 PM 55.5°F13.1°C 29.0°F-1.7°C 36% 19.7 mph NE31.7 kmh NE 34.0 mph54.7 kmh 30.01 in1016.3 mb 0.00 in0.0 mm 0.00 in0.0 mm 0.00 in0.0 mm
03:35 PM 55.6°F13.1°C 28.4°F-2.0°C 35% 19.2 mph NE30.9 kmh NE 34.0 mph54.7 kmh 30.00 in1015.9 mb 0.00 in0.0 mm 0.00 in0.0 mm 0.00 in0.0 mm
03:40 PM 55.7°F13.2°C 27.7°F-2.4°C 34% 18.1 mph NE29.1 kmh NE 29.0 mph46.7 kmh 30.00 in1015.9 mb 0.00 in0.0 mm 0.00 in0.0 mm 0.00 in0.0 mm
03:45 PM 55.6°F13.1°C 26.9°F-2.8°C 33% 17.2 mph NE27.7 kmh NE 29.0 mph46.7 kmh 30.00 in1015.9 mb 0.00 in0.0 mm 0.00 in0.0 mm 0.00 in0.0 mm
03:50 PM 55.6°F13.1°C 26.2°F-3.2°C 32% 17.4 mph NE28.0 kmh NE 35.0 mph56.3 kmh 30.00 in1015.9 mb 0.00 in0.0 mm 0.00 in0.0 mm 0.00 in0.0 mm
03:55 PM 55.5°F13.1°C 27.6°F-2.4°C 34% 18.4 mph NE29.6 kmh NE 35.0 mph56.3 kmh 30.01 in1016.3 mb 0.00 in0.0 mm 0.00 in0.0 mm 0.00 in0.0 mm
04:00 PM 55.5°F13.1°C 26.8°F-2.9°C 33% 18.9 mph NE30.4 kmh NE 32.0 mph51.5 kmh 30.00 in1015.9 mb 0.00 in0.0 mm 0.00 in0.0 mm 0.00 in0.0 mm
04:05 PM 55.5°F13.1°C 27.6°F-2.4°C 34% 18.3 mph NE29.5 kmh NE 28.0 mph45.1 kmh 30.01 in1016.3 mb 0.00 in0.0 mm 0.00 in0.0 mm 0.00 in0.0 mm
04:10 PM 55.7°F13.2°C 27.0°F-2.8°C 33% 17.2 mph NE27.7 kmh NE 28.0 mph45.1 kmh 30.01 in1016.3 mb 0.00 in0.0 mm 0.00 in0.0 mm 0.00 in0.0 mm
04:15 PM 55.6°F13.1°C 26.9°F-2.8°C 33% 16.8 mph NE27.0 kmh NE 32.0 mph51.5 kmh 30.01 in1016.3 mb 0.00 in0.0 mm 0.00 in0.0 mm 0.00 in0.0 mm
04:20 PM 55.7°F13.2°C 27.0°F-2.8°C 33% 16.9 mph NE27.2 kmh NE 32.0 mph51.5 kmh 30.01 in1016.3 mb 0.00 in0.0 mm 0.00 in0.0 mm 0.00 in0.0 mm
04:25 PM 55.5°F13.1°C 27.6°F-2.4°C 34% 16.8 mph NE27.0 kmh NE 29.0 mph46.7 kmh 30.01 in1016.3 mb 0.00 in0.0 mm 0.00 in0.0 mm 0.00 in0.0 mm
04:30 PM 55.5°F13.1°C 28.3°F-2.1°C 35% 16.3 mph NE26.2 kmh NE 29.0 mph46.7 kmh 30.02 in1016.6 mb 0.00 in0.0 mm 0.00 in0.0 mm 0.00 in0.0 mm
04:35 PM 55.5°F13.1°C 29.0°F-1.7°C 36% 16.0 mph NE25.7 kmh NE 28.0 mph45.1 kmh 30.02 in1016.6 mb 0.00 in0.0 mm 0.00 in0.0 mm 0.00 in0.0 mm
04:40 PM 55.5°F13.1°C 29.0°F-1.7°C 36% 16.0 mph NE25.7 kmh NE 28.0 mph45.1 kmh 30.02 in1016.6 mb 0.00 in0.0 mm 0.00 in0.0 mm 0.00 in0.0 mm
04:45 PM 55.2°F12.9°C 28.0°F-2.2°C 35% 15.6 mph NE25.1 kmh NE 33.0 mph53.1 kmh 30.03 in1016.9 mb 0.00 in0.0 mm 0.00 in0.0 mm 0.00 in0.0 mm
04:50 PM 55.0°F12.8°C 28.5°F-1.9°C 36% 16.3 mph NE26.2 kmh NE 33.0 mph53.1 kmh 30.02 in1016.6 mb 0.00 in0.0 mm 0.00 in0.0 mm 0.00 in0.0 mm
04:55 PM 54.9°F12.7°C 29.1°F-1.6°C 37% 18.0 mph NE29.0 kmh NE 30.0 mph48.3 kmh 30.03 in1016.9 mb 0.00 in0.0 mm 0.00 in0.0 mm 0.00 in0.0 mm
05:00 PM 54.9°F12.7°C 29.7°F-1.3°C 38% 17.4 mph NE28.0 kmh NE 31.0 mph49.9 kmh 30.04 in1017.3 mb 0.00 in0.0 mm 0.00 in0.0 mm 0.00 in0.0 mm
05:05 PM 54.8°F12.7°C 29.7°F-1.3°C 38% 15.2 mph NE24.5 kmh NE 31.0 mph49.9 kmh 30.04 in1017.3 mb 0.00 in0.0 mm 0.00 in0.0 mm 0.00 in0.0 mm
05:10 PM 54.6°F12.6°C 28.8°F-1.8°C 37% 14.2 mph NE22.9 kmh NE 30.0 mph48.3 kmh 30.04 in1017.3 mb 0.00 in0.0 mm 0.00 in0.0 mm 0.00 in0.0 mm
05:15 PM 54.6°F12.6°C 29.5°F-1.4°C 38% 14.7 mph NE23.7 kmh NE 30.0 mph48.3 kmh 30.04 in1017.3 mb 0.00 in0.0 mm 0.00 in0.0 mm 0.00 in0.0 mm
05:20 PM 54.3°F12.4°C 29.2°F-1.6°C 38% 14.9 mph NE24.0 kmh NE 29.0 mph46.7 kmh 30.05 in1017.6 mb 0.00 in0.0 mm 0.00 in0.0 mm 0.00 in0.0 mm
05:25 PM 54.2°F12.3°C 29.8°F-1.2°C 39% 14.3 mph NE23.0 kmh NE 25.0 mph40.2 kmh 30.05 in1017.6 mb 0.00 in0.0 mm 0.00 in0.0 mm 0.00 in0.0 mm
05:30 PM 54.1°F12.3°C 29.7°F-1.3°C 39% 13.7 mph NE22.0 kmh NE 25.0 mph40.2 kmh 30.05 in1017.6 mb 0.00 in0.0 mm 0.00 in0.0 mm 0.00 in0.0 mm
05:35 PM 54.1°F12.3°C 29.7°F-1.3°C 39% 12.6 mph NE20.3 kmh NE 23.0 mph37.0 kmh 30.05 in1017.6 mb 0.00 in0.0 mm 0.00 in0.0 mm 0.00 in0.0 mm
05:40 PM 54.0°F12.2°C 28.9°F-1.7°C 38% 11.5 mph NE18.5 kmh NE 26.0 mph41.8 kmh 30.05 in1017.6 mb 0.00 in0.0 mm 0.00 in0.0 mm 0.00 in0.0 mm
05:45 PM 53.9°F12.2°C 29.5°F-1.4°C 39% 11.1 mph NE17.9 kmh NE 27.0 mph43.5 kmh 30.05 in1017.6 mb 0.00 in0.0 mm 0.00 in0.0 mm 0.00 in0.0 mm
05:50 PM 53.7°F12.1°C 29.3°F-1.5°C 39% 12.3 mph NE19.8 kmh NE 31.0 mph49.9 kmh 30.05 in1017.6 mb 0.00 in0.0 mm 0.00 in0.0 mm 0.00 in0.0 mm
05:55 PM 53.5°F11.9°C 29.1°F-1.6°C 39% 13.9 mph NE22.4 kmh NE 31.0 mph49.9 kmh 30.05 in1017.6 mb 0.00 in0.0 mm 0.00 in0.0 mm 0.00 in0.0 mm
06:00 PM 53.3°F11.8°C 29.6°F-1.3°C 40% 14.0 mph NE22.5 kmh NE 25.0 mph40.2 kmh 30.06 in1017.9 mb 0.00 in0.0 mm 0.00 in0.0 mm 0.00 in0.0 mm
06:05 PM 53.1°F11.7°C 29.4°F-1.4°C 40% 13.0 mph NE20.9 kmh NE 25.0 mph40.2 kmh 30.06 in1017.9 mb 0.00 in0.0 mm 0.00 in0.0 mm 0.00 in0.0 mm
06:10 PM 53.0°F11.7°C 29.3°F-1.5°C 40% 12.1 mph NE19.5 kmh NE 22.0 mph35.4 kmh 30.06 in1017.9 mb 0.00 in0.0 mm 0.00 in0.0 mm 0.00 in0.0 mm
06:15 PM 52.9°F11.6°C 29.2°F-1.6°C 40% 11.3 mph NE18.2 kmh NE 24.0 mph38.6 kmh 30.06 in1017.9 mb 0.00 in0.0 mm 0.00 in0.0 mm 0.00 in0.0 mm
06:20 PM 52.8°F11.6°C 29.7°F-1.3°C 41% 11.5 mph NE18.5 kmh NE 24.0 mph38.6 kmh 30.07 in1018.3 mb 0.00 in0.0 mm 0.00 in0.0 mm 0.00 in0.0 mm
06:25 PM 52.6°F11.4°C 29.5°F-1.4°C 41% 11.6 mph NE18.7 kmh NE 20.0 mph32.2 kmh 30.07 in1018.3 mb 0.00 in0.0 mm 0.00 in0.0 mm 0.00 in0.0 mm
06:30 PM 52.4°F11.3°C 30.0°F-1.1°C 42% 9.9 mph NE15.9 kmh NE 17.0 mph27.4 kmh 30.07 in1018.3 mb 0.00 in0.0 mm 0.00 in0.0 mm 0.00 in0.0 mm
06:35 PM 52.3°F11.3°C 30.4°F-0.9°C 43% 8.1 mph NE13.0 kmh NE 17.0 mph27.4 kmh 30.07 in1018.3 mb 0.00 in0.0 mm 0.00 in0.0 mm 0.00 in0.0 mm
06:40 PM 52.2°F11.2°C 30.4°F-0.9°C 43% 7.4 mph NE11.9 kmh NE 12.0 mph19.3 kmh 30.07 in1018.3 mb 0.00 in0.0 mm 0.00 in0.0 mm 0.00 in0.0 mm
06:45 PM 52.0°F11.1°C 30.2°F-1.0°C 43% 6.6 mph NE10.6 kmh NE 18.0 mph29.0 kmh 30.07 in1018.3 mb 0.00 in0.0 mm 0.00 in0.0 mm 0.00 in0.0 mm
06:50 PM 52.0°F11.1°C 30.2°F-1.0°C 43% 6.4 mph NE10.3 kmh NE 21.0 mph33.8 kmh 30.07 in1018.3 mb 0.00 in0.0 mm 0.00 in0.0 mm 0.00 in0.0 mm
06:55 PM 52.0°F11.1°C 30.2°F-1.0°C 43% 7.3 mph NE11.7 kmh NE 23.0 mph37.0 kmh 30.07 in1018.3 mb 0.00 in0.0 mm 0.00 in0.0 mm 0.00 in0.0 mm
07:00 PM 51.9°F11.1°C 30.1°F-1.1°C 43% 7.5 mph NE12.1 kmh NE 23.0 mph37.0 kmh 30.07 in1018.3 mb 0.00 in0.0 mm 0.00 in0.0 mm 0.00 in0.0 mm
07:05 PM 51.8°F11.0°C 30.0°F-1.1°C 43% 5.7 mph NE9.2 kmh NE 10.0 mph16.1 kmh 30.07 in1018.3 mb 0.00 in0.0 mm 0.00 in0.0 mm 0.00 in0.0 mm
07:10 PM 51.8°F11.0°C 29.4°F-1.4°C 42% 3.4 mph NE5.5 kmh NE 14.0 mph22.5 kmh 30.07 in1018.3 mb 0.00 in0.0 mm 0.00 in0.0 mm 0.00 in0.0 mm
07:15 PM 51.8°F11.0°C 29.4°F-1.4°C 42% 3.1 mph NE5.0 kmh NE 14.0 mph22.5 kmh 30.06 in1017.9 mb 0.00 in0.0 mm 0.00 in0.0 mm 0.00 in0.0 mm
07:20 PM 51.8°F11.0°C 29.4°F-1.4°C 42% 4.7 mph NE7.6 kmh NE 18.0 mph29.0 kmh 30.07 in1018.3 mb 0.00 in0.0 mm 0.00 in0.0 mm 0.00 in0.0 mm
07:25 PM 51.8°F11.0°C 28.8°F-1.8°C 41% 5.4 mph NE8.7 kmh NE 18.0 mph29.0 kmh 30.07 in1018.3 mb 0.00 in0.0 mm 0.00 in0.0 mm 0.00 in0.0 mm
07:30 PM 51.8°F11.0°C 28.8°F-1.8°C 41% 5.1 mph NE8.2 kmh NE 16.0 mph25.7 kmh 30.07 in1018.3 mb 0.00 in0.0 mm 0.00 in0.0 mm 0.00 in0.0 mm
07:35 PM 51.8°F11.0°C 28.8°F-1.8°C 41% 5.0 mph NE8.0 kmh NE 20.0 mph32.2 kmh 30.07 in1018.3 mb 0.00 in0.0 mm 0.00 in0.0 mm 0.00 in0.0 mm
07:40 PM 51.7°F10.9°C 28.7°F-1.8°C 41% 6.6 mph NE10.6 kmh NE 20.0 mph32.2 kmh 30.07 in1018.3 mb 0.00 in0.0 mm 0.00 in0.0 mm 0.00 in0.0 mm
07:45 PM 51.7°F10.9°C 28.7°F-1.8°C 41% 7.7 mph NE12.4 kmh NE 18.0 mph29.0 kmh 30.07 in1018.3 mb 0.00 in0.0 mm 0.00 in0.0 mm 0.00 in0.0 mm
07:50 PM 51.7°F10.9°C 28.1°F-2.2°C 40% 7.3 mph NE11.7 kmh NE 15.0 mph24.1 kmh 30.07 in1018.3 mb 0.00 in0.0 mm 0.00 in0.0 mm 0.00 in0.0 mm
07:55 PM 51.7°F10.9°C 28.7°F-1.8°C 41% 7.2 mph NE11.6 kmh NE 15.0 mph24.1 kmh 30.08 in1018.6 mb 0.00 in0.0 mm 0.00 in0.0 mm 0.00 in0.0 mm
08:00 PM 51.7°F10.9°C 28.1°F-2.2°C 40% 6.8 mph NE10.9 kmh NE 15.0 mph24.1 kmh 30.08 in1018.6 mb 0.00 in0.0 mm 0.00 in0.0 mm 0.00 in0.0 mm
08:05 PM 51.8°F11.0°C 27.6°F-2.4°C 39% 6.3 mph NE10.1 kmh NE 19.0 mph30.6 kmh 30.08 in1018.6 mb 0.00 in0.0 mm 0.00 in0.0 mm 0.00 in0.0 mm
08:10 PM 51.9°F11.1°C 27.7°F-2.4°C 39% 7.4 mph NE11.9 kmh NE 21.0 mph33.8 kmh 30.08 in1018.6 mb 0.00 in0.0 mm 0.00 in0.0 mm 0.00 in0.0 mm
08:15 PM 51.9°F11.1°C 27.7°F-2.4°C 39% 8.4 mph NE13.5 kmh NE 21.0 mph33.8 kmh 30.08 in1018.6 mb 0.00 in0.0 mm 0.00 in0.0 mm 0.00 in0.0 mm
08:20 PM 51.8°F11.0°C 27.6°F-2.4°C 39% 8.1 mph NE13.0 kmh NE 17.0 mph27.4 kmh 30.08 in1018.6 mb 0.00 in0.0 mm 0.00 in0.0 mm 0.00 in0.0 mm
08:25 PM 51.8°F11.0°C 27.0°F-2.8°C 38% 6.9 mph NE11.1 kmh NE 16.0 mph25.7 kmh 30.08 in1018.6 mb 0.00 in0.0 mm 0.00 in0.0 mm 0.00 in0.0 mm
08:30 PM 51.8°F11.0°C 27.0°F-2.8°C 38% 5.9 mph NE9.5 kmh NE 16.0 mph25.7 kmh 30.08 in1018.6 mb 0.00 in0.0 mm 0.00 in0.0 mm 0.00 in0.0 mm
08:35 PM 51.8°F11.0°C 26.3°F-3.2°C 37% 5.6 mph NE9.0 kmh NE 18.0 mph29.0 kmh 30.09 in1019.0 mb 0.00 in0.0 mm 0.00 in0.0 mm 0.00 in0.0 mm
08:40 PM 52.0°F11.1°C 27.1°F-2.7°C 38% 6.2 mph NE10.0 kmh NE 18.0 mph29.0 kmh 30.09 in1019.0 mb 0.00 in0.0 mm 0.00 in0.0 mm 0.00 in0.0 mm
08:45 PM 51.8°F11.0°C 27.0°F-2.8°C 38% 7.3 mph NE11.7 kmh NE 18.0 mph29.0 kmh 30.09 in1019.0 mb 0.00 in0.0 mm 0.00 in0.0 mm 0.00 in0.0 mm
08:50 PM 51.8°F11.0°C 27.0°F-2.8°C 38% 8.0 mph NE12.9 kmh NE 14.0 mph22.5 kmh 30.09 in1019.0 mb 0.00 in0.0 mm 0.00 in0.0 mm 0.00 in0.0 mm
08:55 PM 51.9°F11.1°C 26.4°F-3.1°C 37% 8.2 mph NE13.2 kmh NE 20.0 mph32.2 kmh 30.09 in1019.0 mb 0.00 in0.0 mm 0.00 in0.0 mm 0.00 in0.0 mm
09:00 PM 52.0°F11.1°C 26.5°F-3.1°C 37% 8.9 mph NE14.3 kmh NE 24.0 mph38.6 kmh 30.09 in1019.0 mb 0.00 in0.0 mm 0.00 in0.0 mm 0.00 in0.0 mm
09:05 PM 52.1°F11.2°C 26.6°F-3.0°C 37% 9.9 mph NE15.9 kmh NE 26.0 mph41.8 kmh 30.09 in1019.0 mb 0.00 in0.0 mm 0.00 in0.0 mm 0.00 in0.0 mm
09:10 PM 52.3°F11.3°C 26.1°F-3.3°C 36% 11.2 mph NE18.0 kmh NE 26.0 mph41.8 kmh 30.10 in1019.3 mb 0.00 in0.0 mm 0.00 in0.0 mm 0.00 in0.0 mm
09:15 PM 52.3°F11.3°C 26.8°F-2.9°C 37% 13.0 mph NE20.9 kmh NE 24.0 mph38.6 kmh 30.10 in1019.3 mb 0.00 in0.0 mm 0.00 in0.0 mm 0.00 in0.0 mm
09:20 PM 52.4°F11.3°C 26.9°F-2.8°C 37% 14.5 mph NE23.3 kmh NE 24.0 mph38.6 kmh 30.10 in1019.3 mb 0.00 in0.0 mm 0.00 in0.0 mm 0.00 in0.0 mm
09:25 PM 52.3°F11.3°C 26.8°F-2.9°C 37% 15.0 mph NE24.1 kmh NE 26.0 mph41.8 kmh 30.10 in1019.3 mb 0.00 in0.0 mm 0.00 in0.0 mm 0.00 in0.0 mm
09:30 PM 52.2°F11.2°C 27.3°F-2.6°C 38% 14.8 mph NE23.8 kmh NE 26.0 mph41.8 kmh 30.10 in1019.3 mb 0.00 in0.0 mm 0.00 in0.0 mm 0.00 in0.0 mm
09:35 PM 52.1°F11.2°C 27.2°F-2.7°C 38% 13.9 mph NE22.4 kmh NE 24.0 mph38.6 kmh 30.10 in1019.3 mb 0.00 in0.0 mm 0.00 in0.0 mm 0.00 in0.0 mm
09:40 PM 52.0°F11.1°C 27.1°F-2.7°C 38% 13.4 mph NE21.6 kmh NE 26.0 mph41.8 kmh 30.10 in1019.3 mb 0.00 in0.0 mm 0.00 in0.0 mm 0.00 in0.0 mm
09:45 PM 52.0°F11.1°C 27.8°F-2.3°C 39% 14.2 mph NE22.9 kmh NE 34.0 mph54.7 kmh 30.10 in1019.3 mb 0.00 in0.0 mm 0.00 in0.0 mm 0.00 in0.0 mm
09:50 PM 51.9°F11.1°C 27.7°F-2.4°C 39% 15.3 mph NE24.6 kmh NE 34.0 mph54.7 kmh 30.10 in1019.3 mb 0.00 in0.0 mm 0.00 in0.0 mm 0.00 in0.0 mm
09:55 PM 51.8°F11.0°C 28.2°F-2.1°C 40% 15.4 mph NE24.8 kmh NE 34.0 mph54.7 kmh 30.10 in1019.3 mb 0.00 in0.0 mm 0.00 in0.0 mm 0.00 in0.0 mm
10:00 PM 51.7°F10.9°C 28.1°F-2.2°C 40% 14.8 mph NE23.8 kmh NE 29.0 mph46.7 kmh 30.11 in1019.6 mb 0.00 in0.0 mm 0.00 in0.0 mm 0.00 in0.0 mm
10:05 PM 51.5°F10.8°C 28.6°F-1.9°C 41% 13.5 mph NE21.7 kmh NE 29.0 mph46.7 kmh 30.11 in1019.6 mb 0.00 in0.0 mm 0.00 in0.0 mm 0.00 in0.0 mm
10:10 PM 51.4°F10.8°C 28.5°F-1.9°C 41% 12.7 mph NE20.4 kmh NE 30.0 mph48.3 kmh 30.11 in1019.6 mb 0.00 in0.0 mm 0.00 in0.0 mm 0.00 in0.0 mm
10:15 PM 51.4°F10.8°C 28.5°F-1.9°C 41% 12.9 mph NE20.8 kmh NE 30.0 mph48.3 kmh 30.12 in1020.0 mb 0.00 in0.0 mm 0.00 in0.0 mm 0.00 in0.0 mm
10:20 PM 51.3°F10.7°C 29.0°F-1.7°C 42% 13.4 mph NE21.6 kmh NE 32.0 mph51.5 kmh 30.12 in1020.0 mb 0.00 in0.0 mm 0.00 in0.0 mm 0.00 in0.0 mm
10:25 PM 51.2°F10.7°C 28.9°F-1.7°C 42% 13.9 mph NE22.4 kmh NE 32.0 mph51.5 kmh 30.13 in1020.3 mb 0.00 in0.0 mm 0.00 in0.0 mm 0.00 in0.0 mm
10:30 PM 51.1°F10.6°C 28.8°F-1.8°C 42% 12.8 mph NE20.6 kmh NE 28.0 mph45.1 kmh 30.13 in1020.3 mb 0.00 in0.0 mm 0.00 in0.0 mm 0.00 in0.0 mm
10:35 PM 51.0°F10.6°C 29.3°F-1.5°C 43% 11.0 mph NE17.7 kmh NE 28.0 mph45.1 kmh 30.12 in1020.0 mb 0.00 in0.0 mm 0.00 in0.0 mm 0.00 in0.0 mm
10:40 PM 51.0°F10.6°C 29.3°F-1.5°C 43% 11.1 mph NE17.9 kmh NE 24.0 mph38.6 kmh 30.12 in1020.0 mb 0.00 in0.0 mm 0.00 in0.0 mm 0.00 in0.0 mm
10:45 PM 50.9°F10.5°C 29.2°F-1.6°C 43% 12.5 mph NE20.1 kmh NE 27.0 mph43.5 kmh 30.13 in1020.3 mb 0.00 in0.0 mm 0.00 in0.0 mm 0.00 in0.0 mm
10:50 PM 50.9°F10.5°C 29.2°F-1.6°C 43% 13.1 mph NE21.1 kmh NE 27.0 mph43.5 kmh 30.13 in1020.3 mb 0.00 in0.0 mm 0.00 in0.0 mm 0.00 in0.0 mm
10:55 PM 50.8°F10.4°C 29.1°F-1.6°C 43% 12.5 mph NE20.1 kmh NE 20.0 mph32.2 kmh 30.13 in1020.3 mb 0.00 in0.0 mm 0.00 in0.0 mm 0.00 in0.0 mm
11:00 PM 50.8°F10.4°C 29.1°F-1.6°C 43% 12.3 mph NE19.8 kmh NE 26.0 mph41.8 kmh 30.13 in1020.3 mb 0.00 in0.0 mm 0.00 in0.0 mm 0.00 in0.0 mm
11:05 PM 50.8°F10.4°C 29.1°F-1.6°C 43% 12.4 mph NE20.0 kmh NE 26.0 mph41.8 kmh 30.13 in1020.3 mb 0.00 in0.0 mm 0.00 in0.0 mm 0.00 in0.0 mm
11:10 PM 50.7°F10.4°C 29.0°F-1.7°C 43% 12.1 mph NE19.5 kmh NE 24.0 mph38.6 kmh 30.12 in1020.0 mb 0.00 in0.0 mm 0.00 in0.0 mm 0.00 in0.0 mm
11:15 PM 50.6°F10.3°C 29.5°F-1.4°C 44% 12.3 mph NE19.8 kmh NE 24.0 mph38.6 kmh 30.13 in1020.3 mb 0.00 in0.0 mm 0.00 in0.0 mm 0.00 in0.0 mm
11:20 PM 50.5°F10.3°C 29.4°F-1.4°C 44% 12.4 mph NE20.0 kmh NE 27.0 mph43.5 kmh 30.13 in1020.3 mb 0.00 in0.0 mm 0.00 in0.0 mm 0.00 in0.0 mm
11:25 PM 50.5°F10.3°C 29.4°F-1.4°C 44% 12.2 mph NE19.6 kmh NE 27.0 mph43.5 kmh 30.13 in1020.3 mb 0.00 in0.0 mm 0.00 in0.0 mm 0.00 in0.0 mm
11:30 PM 50.5°F10.3°C 29.4°F-1.4°C 44% 12.6 mph NE20.3 kmh NE 22.0 mph35.4 kmh 30.13 in1020.3 mb 0.00 in0.0 mm 0.00 in0.0 mm 0.00 in0.0 mm
11:35 PM 50.5°F10.3°C 29.4°F-1.4°C 44% 12.9 mph NE20.8 kmh NE 24.0 mph38.6 kmh 30.13 in1020.3 mb 0.00 in0.0 mm 0.00 in0.0 mm 0.00 in0.0 mm
11:40 PM 50.5°F10.3°C 29.4°F-1.4°C 44% 12.4 mph NE20.0 kmh NE 24.0 mph38.6 kmh 30.13 in1020.3 mb 0.00 in0.0 mm 0.00 in0.0 mm 0.00 in0.0 mm
11:45 PM 50.4°F10.2°C 29.8°F-1.2°C 45% 11.5 mph NE18.5 kmh NE 21.0 mph33.8 kmh 30.13 in1020.3 mb 0.00 in0.0 mm 0.00 in0.0 mm 0.00 in0.0 mm
11:50 PM 50.5°F10.3°C 29.4°F-1.4°C 44% 10.7 mph NE17.2 kmh NE 27.0 mph43.5 kmh 30.13 in1020.3 mb 0.00 in0.0 mm 0.00 in0.0 mm 0.00 in0.0 mm
11:55 PM 50.4°F10.2°C 29.8°F-1.2°C 45% 10.5 mph NE16.9 kmh NE 27.0 mph43.5 kmh 30.13 in1020.3 mb 0.00 in0.0 mm 0.00 in0.0 mm 0.00 in0.0 mm